createdAt,value
2023-04-26T00:03:00.674Z,3.95
2023-04-26T00:06:06.097Z,3.50
2023-04-26T00:09:07.977Z,3.90
2023-04-26T00:12:11.978Z,3.85
2023-04-26T00:15:15.235Z,4.07
2023-04-26T00:18:17.826Z,5.95
2023-04-26T00:21:19.628Z,4.75
2023-04-26T00:24:21.372Z,3.72
2023-04-26T00:27:23.071Z,4.35
2023-04-26T00:30:24.856Z,6.13
2023-04-26T00:33:26.628Z,4.18
2023-04-26T00:36:29.553Z,4.75
2023-04-26T00:39:31.745Z,4.82
2023-04-26T00:42:33.559Z,4.28
2023-04-26T00:45:35.865Z,3.72
2023-04-26T00:48:38.109Z,3.83
2023-04-26T00:51:40.350Z,4.45
2023-04-26T00:54:43.453Z,5.63
2023-04-26T00:57:46.601Z,5.78
2023-04-26T01:00:50.319Z,6.97
2023-04-26T01:03:52.427Z,7.38
2023-04-26T01:06:54.354Z,4.90
2023-04-26T01:09:58.073Z,6.38
2023-04-26T01:13:01.402Z,5.70
2023-04-26T01:16:04.646Z,5.85
2023-04-26T01:19:13.258Z,6.43
2023-04-26T01:22:15.214Z,9.05
2023-04-26T01:25:17.808Z,9.05
2023-04-26T01:28:19.570Z,8.98
2023-04-26T01:31:21.488Z,7.55
2023-04-26T01:34:23.289Z,7.20
2023-04-26T01:37:25.188Z,9.02
2023-04-26T01:40:26.937Z,8.43
2023-04-26T01:43:28.924Z,7.85
2023-04-26T01:46:32.666Z,7.93
2023-04-26T01:49:34.619Z,6.63
2023-04-26T01:52:36.438Z,6.55
2023-04-26T01:55:40.360Z,7.82
2023-04-26T01:58:43.981Z,7.45
2023-04-26T02:01:46.312Z,7.90
2023-04-26T02:04:48.326Z,7.10
2023-04-26T02:07:51.445Z,6.40
2023-04-26T02:10:53.346Z,7.28
2023-04-26T02:13:55.178Z,7.65
2023-04-26T02:16:57.247Z,7.18
2023-04-26T02:19:58.971Z,7.15
2023-04-26T02:23:00.801Z,8.38
2023-04-26T02:26:03.306Z,7.25
2023-04-26T02:29:05.154Z,8.35
2023-04-26T02:32:07.835Z,9.75
2023-04-26T02:35:10.837Z,10.00
2023-04-26T02:38:12.605Z,8.15
2023-04-26T02:41:14.556Z,9.10
2023-04-26T02:44:17.102Z,9.82
2023-04-26T02:47:18.926Z,7.28
2023-04-26T02:50:21.458Z,8.25
2023-04-26T02:53:24.836Z,7.55
2023-04-26T02:56:26.616Z,9.50
2023-04-26T02:59:30.343Z,12.57
2023-04-26T03:02:32.516Z,9.63
2023-04-26T03:05:34.365Z,9.48
2023-04-26T03:08:36.804Z,8.57
2023-04-26T03:11:40.699Z,10.40
2023-04-26T03:14:42.599Z,9.48
2023-04-26T03:17:44.465Z,9.85
2023-04-26T03:20:46.740Z,9.07
2023-04-26T03:23:49.714Z,11.57
2023-04-26T03:26:51.674Z,10.43
2023-04-26T03:29:53.756Z,11.95
2023-04-26T03:32:56.612Z,10.45
2023-04-26T03:35:59.499Z,9.80
2023-04-26T03:39:01.500Z,11.50
2023-04-26T03:42:04.096Z,8.85
2023-04-26T03:45:06.531Z,11.63
2023-04-26T03:48:08.312Z,9.73
2023-04-26T03:51:10.151Z,11.40
2023-04-26T03:54:13.324Z,10.63
2023-04-26T03:57:15.077Z,14.00
2023-04-26T04:00:17.135Z,9.07
2023-04-26T04:03:19.075Z,10.15
2023-04-26T04:06:21.912Z,10.20
2023-04-26T04:09:25.209Z,10.82
2023-04-26T04:12:27.322Z,10.68
2023-04-26T04:15:29.288Z,10.60
2023-04-26T04:18:31.368Z,9.77
2023-04-26T04:21:33.929Z,9.75
2023-04-26T04:24:35.818Z,9.48
2023-04-26T04:27:38.183Z,8.23
2023-04-26T04:30:40.067Z,10.75
2023-04-26T04:33:41.881Z,9.88
2023-04-26T04:36:46.203Z,10.75
2023-04-26T04:39:48.184Z,8.23
2023-04-26T04:42:51.238Z,9.75
2023-04-26T04:45:55.695Z,10.32
2023-04-26T04:48:57.616Z,8.57
2023-04-26T04:51:59.509Z,10.65
2023-04-26T04:55:01.832Z,12.00
2023-04-26T04:58:04.256Z,9.10
2023-04-26T05:01:22.634Z,7.15
2023-04-26T05:04:28.486Z,9.32
2023-04-26T05:07:32.993Z,7.78
2023-04-26T05:10:36.320Z,7.97
2023-04-26T05:13:38.355Z,8.27
2023-04-26T05:16:41.541Z,9.23
2023-04-26T05:19:43.847Z,6.88
2023-04-26T05:22:47.886Z,6.78
2023-04-26T05:25:49.661Z,9.18
2023-04-26T05:29:31.148Z,9.55
2023-04-26T05:32:51.621Z,5.38
2023-04-26T05:36:13.721Z,8.35
2023-04-26T05:39:16.405Z,9.00
2023-04-26T05:42:19.664Z,8.55
2023-04-26T05:45:21.962Z,7.80
2023-04-26T05:48:25.547Z,7.63
2023-04-26T05:51:28.128Z,7.15
2023-04-26T05:54:30.008Z,8.82
2023-04-26T05:57:32.420Z,6.55
2023-04-26T06:00:35.238Z,6.75
2023-04-26T06:03:37.501Z,7.10
2023-04-26T06:06:40.114Z,6.47
2023-04-26T06:09:43.471Z,6.55
2023-04-26T06:12:46.047Z,10.77
2023-04-26T06:15:47.979Z,7.57
2023-04-26T06:18:51.201Z,9.95
2023-04-26T06:21:55.400Z,9.82
2023-04-26T06:24:57.462Z,8.77
2023-04-26T06:27:59.472Z,9.23
2023-04-26T06:31:02.123Z,11.65
2023-04-26T06:34:05.396Z,12.05
2023-04-26T06:37:07.715Z,7.90
2023-04-26T06:40:15.911Z,7.72
2023-04-26T06:43:18.725Z,7.28
2023-04-26T06:46:42.564Z,8.45
2023-04-26T06:49:46.480Z,10.95
2023-04-26T06:52:48.256Z,7.80
2023-04-26T06:55:50.089Z,7.70
2023-04-26T06:59:02.808Z,9.25
2023-04-26T07:02:05.451Z,9.95
2023-04-26T07:05:07.824Z,8.73
2023-04-26T07:08:09.732Z,9.07
2023-04-26T07:11:13.530Z,8.65
2023-04-26T07:14:15.622Z,8.65
2023-04-26T07:17:17.472Z,8.32
2023-04-26T07:20:22.901Z,7.80
2023-04-26T07:23:24.748Z,7.53
2023-04-26T07:26:26.705Z,6.13
2023-04-26T07:29:28.694Z,7.25
2023-04-26T07:32:30.533Z,8.90
2023-04-26T07:35:34.811Z,11.18
2023-04-26T07:38:36.592Z,7.25
2023-04-26T07:41:38.481Z,9.35
2023-04-26T07:44:40.632Z,7.55
2023-04-26T07:47:44.478Z,11.73
2023-04-26T07:50:46.418Z,8.02
2023-04-26T07:53:48.473Z,9.32
2023-04-26T07:56:50.350Z,6.88
2023-04-26T07:59:52.089Z,7.00
2023-04-26T08:02:53.951Z,7.22
2023-04-26T08:05:56.307Z,7.95
2023-04-26T08:08:58.369Z,5.68
2023-04-26T08:12:00.226Z,8.63
2023-04-26T08:15:02.470Z,5.70
2023-04-26T08:18:04.586Z,6.20
2023-04-26T08:21:06.677Z,5.38
2023-04-26T08:24:08.694Z,5.35
2023-04-26T08:27:10.490Z,6.93
2023-04-26T08:30:12.530Z,5.85
2023-04-26T08:33:14.440Z,5.88
2023-04-26T08:36:16.257Z,5.65
2023-04-26T08:39:18.127Z,4.90
2023-04-26T08:42:22.794Z,5.50
2023-04-26T08:45:25.138Z,5.70
2023-04-26T08:48:31.198Z,8.05
2023-04-26T08:51:35.428Z,5.20
2023-04-26T08:54:38.503Z,6.78
2023-04-26T08:57:41.583Z,6.63
2023-04-26T09:00:48.577Z,6.53
2023-04-26T09:03:50.566Z,7.80
2023-04-26T09:06:55.103Z,5.75
2023-04-26T09:09:58.796Z,5.60
2023-04-26T09:13:00.768Z,5.45
2023-04-26T09:16:05.245Z,4.65
2023-04-26T09:19:07.764Z,4.40
2023-04-26T09:22:10.060Z,7.32
2023-04-26T09:25:13.618Z,8.63
2023-04-26T09:28:23.295Z,7.00
2023-04-26T09:31:49.977Z,5.80
2023-04-26T09:34:52.036Z,7.55
2023-04-26T09:38:07.891Z,4.35
2023-04-26T09:41:14.279Z,6.53
2023-04-26T09:44:23.662Z,4.70
2023-04-26T09:47:25.820Z,7.40
2023-04-26T09:50:31.992Z,10.38
2023-04-26T09:53:39.211Z,7.20
2023-04-26T09:56:41.122Z,4.55
2023-04-26T09:59:46.227Z,6.35
2023-04-26T10:02:48.391Z,7.10
2023-04-26T10:05:51.211Z,4.25
2023-04-26T10:08:53.236Z,2.72
2023-04-26T10:11:57.026Z,5.10
2023-04-26T10:15:01.504Z,4.10
2023-04-26T10:18:03.459Z,4.55
2023-04-26T10:21:11.171Z,6.38
2023-04-26T10:24:13.174Z,4.53
2023-04-26T10:27:15.219Z,5.93
2023-04-26T10:30:22.182Z,4.28
2023-04-26T10:33:25.188Z,7.82
2023-04-26T10:36:28.099Z,5.72
2023-04-26T10:39:30.597Z,6.00
2023-04-26T10:42:32.455Z,6.22
2023-04-26T10:45:34.970Z,6.38
2023-04-26T10:48:36.955Z,4.35
2023-04-26T10:51:41.808Z,3.72
2023-04-26T10:54:54.635Z,3.88
2023-04-26T10:57:57.527Z,7.13
2023-04-26T11:01:13.454Z,6.10
2023-04-26T11:04:16.565Z,4.82
2023-04-26T11:07:36.521Z,4.82
2023-04-26T11:10:39.097Z,4.15
2023-04-26T11:13:42.741Z,5.18
2023-04-26T11:16:46.161Z,7.95
2023-04-26T11:19:50.443Z,5.20
2023-04-26T11:22:54.084Z,6.15
2023-04-26T11:26:08.434Z,3.35
2023-04-26T11:29:13.566Z,6.68
2023-04-26T11:32:15.460Z,3.90
2023-04-26T11:35:17.361Z,5.18
2023-04-26T11:38:22.855Z,3.78
2023-04-26T11:41:24.838Z,3.90
2023-04-26T11:44:26.778Z,3.90
2023-04-26T11:47:30.935Z,6.65
2023-04-26T11:50:33.843Z,5.28
2023-04-26T11:53:40.569Z,5.20
2023-04-26T11:56:42.651Z,2.78
2023-04-26T11:59:45.218Z,4.43
2023-04-26T12:02:49.124Z,5.00
2023-04-26T12:05:56.314Z,5.50
2023-04-26T12:08:58.472Z,3.78
2023-04-26T12:12:07.737Z,5.68
2023-04-26T12:15:13.211Z,5.13
2023-04-26T12:18:17.216Z,4.50
2023-04-26T12:21:20.409Z,2.40
2023-04-26T12:24:27.159Z,5.15
2023-04-26T12:27:29.001Z,5.97
2023-04-26T12:30:31.381Z,3.92
2023-04-26T12:33:39.217Z,3.55
2023-04-26T12:36:44.453Z,3.45
2023-04-26T12:39:49.341Z,7.07
2023-04-26T12:42:51.944Z,3.60
2023-04-26T12:45:54.272Z,8.63
2023-04-26T12:48:56.177Z,3.97
2023-04-26T12:51:57.993Z,3.28
2023-04-26T12:54:59.854Z,3.55
2023-04-26T12:58:01.627Z,4.22
2023-04-26T13:01:03.555Z,4.43
2023-04-26T13:04:05.952Z,4.97
2023-04-26T13:07:08.451Z,4.43
2023-04-26T13:10:12.983Z,7.65
2023-04-26T13:13:15.122Z,3.40
2023-04-26T13:16:17.036Z,4.20
2023-04-26T13:19:19.096Z,3.90
2023-04-26T13:22:21.540Z,4.40
2023-04-26T13:25:23.529Z,5.55
2023-04-26T13:28:25.356Z,3.85
2023-04-26T13:31:27.427Z,3.47
2023-04-26T13:34:30.842Z,4.55
2023-04-26T13:37:33.084Z,6.03
2023-04-26T13:40:34.856Z,5.28
2023-04-26T13:43:36.912Z,2.15
2023-04-26T13:46:38.875Z,3.72
2023-04-26T13:49:41.898Z,4.07
2023-04-26T13:52:43.790Z,2.92
2023-04-26T13:55:46.430Z,3.55
2023-04-26T13:58:48.985Z,7.35
2023-04-26T14:01:54.259Z,3.03
2023-04-26T14:05:00.654Z,2.58
2023-04-26T14:08:05.165Z,4.38
2023-04-26T14:11:07.940Z,4.60
2023-04-26T14:14:09.812Z,5.22
2023-04-26T14:17:11.701Z,3.33
2023-04-26T14:20:13.569Z,2.92
2023-04-26T14:23:15.379Z,3.65
2023-04-26T14:26:17.650Z,2.42
2023-04-26T14:29:19.458Z,4.72
2023-04-26T14:32:21.595Z,4.55
2023-04-26T14:35:23.366Z,3.13
2023-04-26T14:38:25.192Z,2.80
2023-04-26T14:41:27.240Z,2.78
2023-04-26T14:44:29.368Z,3.67
2023-04-26T14:47:31.289Z,2.85
2023-04-26T14:50:35.554Z,7.40
2023-04-26T14:53:37.472Z,2.75
2023-04-26T14:56:40.632Z,2.65
2023-04-26T14:59:43.407Z,6.30
2023-04-26T15:02:46.124Z,4.25
2023-04-26T15:05:48.056Z,4.80
2023-04-26T15:08:50.289Z,3.88
2023-04-26T15:11:52.167Z,3.30
2023-04-26T15:14:54.106Z,5.93
2023-04-26T15:17:55.964Z,3.88
2023-04-26T15:20:58.644Z,6.22
2023-04-26T15:24:00.704Z,3.70
2023-04-26T15:27:04.151Z,3.05
2023-04-26T15:30:07.438Z,4.70
2023-04-26T15:33:11.017Z,3.17
2023-04-26T15:36:12.851Z,5.63
2023-04-26T15:39:14.956Z,4.55
2023-04-26T15:42:17.231Z,4.55
2023-04-26T15:45:20.046Z,3.10
2023-04-26T15:48:21.973Z,2.85
2023-04-26T15:51:24.275Z,4.22
2023-04-26T15:54:27.150Z,5.22
2023-04-26T15:57:29.493Z,3.88
2023-04-26T16:00:33.162Z,5.20
2023-04-26T16:03:35.084Z,4.80
2023-04-26T16:06:36.959Z,3.38
2023-04-26T16:09:38.830Z,5.28
2023-04-26T16:12:41.769Z,2.13
2023-04-26T16:15:43.922Z,4.93
2023-04-26T16:18:46.079Z,3.65
2023-04-26T16:21:47.996Z,5.68
2023-04-26T16:24:49.784Z,4.68
2023-04-26T16:27:51.573Z,3.92
2023-04-26T16:30:55.298Z,5.53
2023-04-26T16:33:57.149Z,3.00
2023-04-26T16:36:58.869Z,4.72
2023-04-26T16:40:01.128Z,4.10
2023-04-26T16:43:03.555Z,4.78
2023-04-26T16:46:07.306Z,7.00
2023-04-26T16:49:10.425Z,4.97
2023-04-26T16:52:16.234Z,2.03
2023-04-26T16:55:18.220Z,4.05
2023-04-26T16:58:20.077Z,8.45
2023-04-26T17:01:21.852Z,7.03
2023-04-26T17:04:23.797Z,3.40
2023-04-26T17:07:25.908Z,4.35
2023-04-26T17:10:27.924Z,4.43
2023-04-26T17:13:30.889Z,2.15
2023-04-26T17:16:32.773Z,5.57
2023-04-26T17:19:34.578Z,5.32
2023-04-26T17:22:36.751Z,4.20
2023-04-26T17:25:39.736Z,3.13
2023-04-26T17:28:41.679Z,7.38
2023-04-26T17:31:44.745Z,3.95
2023-04-26T17:34:47.040Z,4.40
2023-04-26T17:37:50.553Z,4.93
2023-04-26T17:40:56.184Z,6.32
2023-04-26T17:43:58.075Z,6.00
2023-04-26T17:46:59.871Z,5.75
2023-04-26T17:50:03.676Z,7.30
2023-04-26T17:53:06.522Z,4.25
2023-04-26T17:56:10.072Z,5.10
2023-04-26T17:59:15.765Z,6.88
2023-04-26T18:02:18.493Z,4.90
2023-04-26T18:05:21.965Z,6.78
2023-04-26T18:08:23.752Z,4.97
2023-04-26T18:11:26.567Z,4.43
2023-04-26T18:14:47.588Z,5.45
2023-04-26T18:17:52.026Z,4.50
2023-04-26T18:20:55.035Z,8.70
2023-04-26T18:23:56.869Z,4.28
2023-04-26T18:26:58.645Z,4.22
2023-04-26T18:30:01.376Z,6.03
2023-04-26T18:33:03.845Z,2.95
2023-04-26T18:36:05.960Z,5.43
2023-04-26T18:39:08.089Z,4.10
2023-04-26T18:42:09.939Z,3.50
2023-04-26T18:45:14.740Z,6.10
2023-04-26T18:48:16.994Z,6.38
2023-04-26T18:51:19.786Z,9.57
2023-04-26T18:54:22.501Z,5.35
2023-04-26T18:57:26.749Z,5.53
2023-04-26T19:00:29.739Z,6.65
2023-04-26T19:03:31.888Z,5.53
2023-04-26T19:06:34.019Z,6.18
2023-04-26T19:09:53.073Z,5.68
2023-04-26T19:12:57.545Z,6.70
2023-04-26T19:16:02.003Z,4.30
2023-04-26T19:19:03.937Z,8.68
2023-04-26T19:22:05.796Z,4.82
2023-04-26T19:25:08.098Z,7.70
2023-04-26T19:28:10.158Z,5.95
2023-04-26T19:31:12.048Z,5.53
2023-04-26T19:34:14.550Z,5.65
2023-04-26T19:37:16.596Z,8.13
2023-04-26T19:40:18.524Z,4.18
2023-04-26T19:43:21.015Z,4.57
2023-04-26T19:46:23.884Z,6.85
2023-04-26T19:49:27.840Z,4.63
2023-04-26T19:52:53.594Z,6.53
2023-04-26T19:55:58.456Z,7.78
2023-04-26T19:59:04.274Z,5.88
2023-04-26T20:02:06.999Z,4.95
2023-04-26T20:05:09.428Z,5.53
2023-04-26T20:08:11.240Z,7.07
2023-04-26T20:11:16.830Z,5.00
2023-04-26T20:14:18.781Z,5.70
2023-04-26T20:17:20.542Z,5.65
2023-04-26T20:20:22.453Z,6.97
2023-04-26T20:23:24.217Z,8.98
2023-04-26T20:26:26.336Z,7.35
2023-04-26T20:29:28.127Z,14.05
2023-04-26T20:32:30.078Z,15.55
2023-04-26T20:35:31.912Z,10.93
2023-04-26T20:38:33.925Z,9.85
2023-04-26T20:41:36.622Z,13.35
2023-04-26T20:44:39.461Z,7.80
2023-04-26T20:47:41.380Z,9.30
2023-04-26T20:50:43.238Z,9.65
2023-04-26T20:53:45.068Z,7.00
2023-04-26T20:56:46.965Z,8.45
2023-04-26T20:59:48.910Z,8.30
2023-04-26T21:02:52.150Z,8.25
2023-04-26T21:05:54.065Z,10.30
2023-04-26T21:08:56.062Z,9.50
2023-04-26T21:11:57.960Z,6.22
2023-04-26T21:15:00.131Z,7.35
2023-04-26T21:18:02.107Z,7.05
2023-04-26T21:21:04.079Z,8.02
2023-04-26T21:24:07.554Z,7.82
2023-04-26T21:27:09.692Z,6.78
2023-04-26T21:30:12.338Z,5.82
2023-04-26T21:33:16.013Z,10.07
2023-04-26T21:36:20.833Z,7.05
2023-04-26T21:39:22.695Z,5.55
2023-04-26T21:42:24.981Z,7.10
2023-04-26T21:45:26.847Z,5.88
2023-04-26T21:48:28.847Z,8.77
2023-04-26T21:51:31.370Z,5.25
2023-04-26T21:54:36.766Z,6.50
2023-04-26T21:57:39.162Z,7.75
2023-04-26T22:00:41.302Z,6.97
2023-04-26T22:03:43.399Z,9.50
2023-04-26T22:06:46.946Z,9.68
2023-04-26T22:09:48.878Z,8.35
2023-04-26T22:12:50.727Z,8.70
2023-04-26T22:15:52.666Z,5.65
2023-04-26T22:18:54.465Z,7.18
2023-04-26T22:21:56.567Z,5.88
2023-04-26T22:24:58.397Z,6.97
2023-04-26T22:28:00.268Z,6.75
2023-04-26T22:31:02.100Z,6.25
2023-04-26T22:34:03.945Z,4.18
2023-04-26T22:37:19.624Z,6.82
2023-04-26T22:40:22.866Z,5.22
2023-04-26T22:43:24.814Z,4.93
2023-04-26T22:46:26.806Z,7.07
2023-04-26T22:49:28.735Z,5.50
2023-04-26T22:52:32.090Z,6.90
2023-04-26T22:55:35.281Z,6.18
2023-04-26T22:58:37.069Z,4.47
2023-04-26T23:01:39.018Z,5.18
2023-04-26T23:04:44.207Z,7.00
2023-04-26T23:07:46.106Z,3.40
2023-04-26T23:10:48.930Z,4.60
2023-04-26T23:13:52.752Z,5.00
2023-04-26T23:16:54.786Z,5.43
2023-04-26T23:19:56.700Z,4.80
2023-04-26T23:22:58.443Z,6.38
2023-04-26T23:26:00.336Z,7.55
2023-04-26T23:29:02.262Z,7.15
2023-04-26T23:32:04.154Z,6.93
2023-04-26T23:35:06.822Z,6.47
2023-04-26T23:38:08.616Z,5.15
2023-04-26T23:41:10.606Z,6.88
2023-04-26T23:44:12.451Z,6.57
2023-04-26T23:47:14.391Z,4.82
2023-04-26T23:50:16.305Z,4.47
2023-04-26T23:53:18.270Z,6.88
2023-04-26T23:56:20.188Z,9.32
2023-04-26T23:59:23.342Z,5.65
